Time;durP1;ratioP1;P1;durP2;ratioP2;P2;SDS_P1;SDS_P2;PMS_P1;PMS_P2;Temp;Humidity;BMP_temperature;BMP_pressure;BME280_temperature;BME280_humidity;BME280_pressure;Samples;Min_cycle;Max_cycle;Signal;HPM_P1;HPM_P2
2022/05/31 00:01:08;;;;;;;;;;;;;;;6.83;77.12;100397.53;6251645;22;1302;-91
2022/05/31 00:04:11;;;;;;;;;;;;;;;7.07;75.42;100403.44;6278796;22;879;-92
2022/05/31 00:06:36;;;;;;;;;;;;;;;6.63;75.72;100405.50;6251806;22;1190;-92
2022/05/31 00:09:02;;;;;;;;;;;;;;;6.69;76.35;100408.03;6252265;22;956;-92
2022/05/31 00:11:52;;;;;;;;;;;;;;;6.67;75.87;100406.63;6251657;22;1356;-92
2022/05/31 00:15:00;;;;;;;;;;;;;;;6.18;77.43;100406.66;6245590;23;1888;-92
2022/05/31 00:18:05;;;;;;;;;;;;;;;6.61;76.04;100403.03;6215264;23;884;-93
2022/05/31 00:21:10;;;;;;;;;;;;;;;6.51;76.62;100396.69;6197625;23;1208;-93
2022/05/31 00:24:26;;;;;;;;;;;;;;;6.26;78.26;100399.94;6096694;23;1074;-93
2022/05/31 00:27:39;;;;;;;;;;;;;;;6.11;78.10;100408.75;6067738;23;903;-93
2022/05/31 00:30:42;;;;;;;;;;;;;;;6.18;78.49;100409.38;6076625;23;1211;-93
2022/05/31 00:33:55;;;;;;;;;;;;;;;6.10;77.73;100403.56;6039038;23;1029;-93
2022/05/31 00:36:47;;;;;;;;;;;;;;;6.29;77.59;100400.25;6016833;23;949;-92
2022/05/31 00:39:13;;;;;;;;;;;;;;;6.23;77.35;100400.44;6097554;23;1295;-92
2022/05/31 00:42:09;;;;;;;;;;;;;;;6.19;78.38;100400.16;6101231;23;1326;-92
2022/05/31 00:48:03;;;;;;;;;;;;;;;6.07;78.63;100402.97;6142867;23;1314;-92
2022/05/31 00:50:49;;;;;;;;;;;;;;;6.20;78.65;100390.91;6154879;23;1260;-92
2022/05/31 00:53:17;;;;;;;;;;;;;;;6.33;76.99;100400.56;6155084;23;1227;-93
2022/05/31 00:56:09;;;;;;;;;;;;;;;6.13;76.48;100398.41;6272415;22;1881;-92
2022/05/31 00:58:37;;;;;;;;;;;;;;;5.89;77.43;100391.59;6250450;22;1271;-92
2022/05/31 01:01:41;;;;;;;;;;;;;;;6.16;77.64;100388.94;6251192;22;1316;-92
2022/05/31 01:04:07;;;;;;;;;;;;;;;6.47;75.94;100388.19;6255009;22;992;-92
2022/05/31 01:06:36;;;;;;;;;;;;;;;6.21;75.21;100392.53;6251465;22;1324;-93
2022/05/31 01:09:02;;;;;;;;;;;;;;;5.85;76.88;100393.16;6251250;22;1333;-92
2022/05/31 01:11:54;;;;;;;;;;;;;;;5.89;78.52;100389.72;6251522;22;1254;-92
2022/05/31 01:14:59;;;;;;;;;;;;;;;6.04;77.01;100403.47;6250159;22;1926;-93
2022/05/31 01:17:44;;;;;;;;;;;;;;;5.90;77.21;100393.25;6276259;22;1187;-93
2022/05/31 01:23:47;;;;;;;;;;;;;;;5.64;78.84;100392.06;6278186;22;588;-93
2022/05/31 01:30:02;;;;;;;;;;;;;;;5.33;79.25;100383.50;6202053;22;1020;-93
2022/05/31 01:33:06;;;;;;;;;;;;;;;5.64;78.92;100387.44;6243638;22;1040;-93
2022/05/31 01:35:32;;;;;;;;;;;;;;;5.68;77.97;100380.47;6278030;22;1939;-93
2022/05/31 01:38:07;;;;;;;;;;;;;;;5.43;78.85;100385.53;6251104;22;1199;-93
2022/05/31 01:41:03;;;;;;;;;;;;;;;5.15;80.22;100382.94;6251175;22;1291;-93
2022/05/31 01:44:10;;;;;;;;;;;;;;;5.53;79.50;100382.16;6244718;23;1123;-93
2022/05/31 01:47:03;;;;;;;;;;;;;;;5.52;77.99;100386.75;6216388;23;1054;-93
2022/05/31 01:49:32;;;;;;;;;;;;;;;5.56;78.02;100387.06;6245073;23;1277;-93
2022/05/31 01:52:20;;;;;;;;;;;;;;;5.68;78.55;100383.19;6245199;23;1259;-93
2022/05/31 01:55:34;;;;;;;;;;;;;;;5.91;76.17;100384.84;6184541;23;1885;-93
2022/05/31 02:01:56;;;;;;;;;;;;;;;5.65;76.85;100386.38;6184375;23;1196;-93
2022/05/31 02:05:03;;;;;;;;;;;;;;;5.69;76.94;100384.00;6125441;23;860;-93
2022/05/31 02:07:32;;;;;;;;;;;;;;;5.60;77.48;100380.91;6273493;22;1088;-93
2022/05/31 02:16:48;;;;;;;;;;;;;;;5.76;77.06;100381.91;6184621;23;982;-93
2022/05/31 02:19:23;;;;;;;;;;;;;;;5.66;76.11;100384.50;6181297;22;1203;-93
2022/05/31 02:22:17;;;;;;;;;;;;;;;5.35;76.64;100383.25;6250815;22;1353;-93
2022/05/31 02:25:13;;;;;;;;;;;;;;;5.45;77.48;100382.53;6250645;22;1369;-92
2022/05/31 02:27:39;;;;;;;;;;;;;;;5.64;76.33;100381.19;6277970;22;815;-92
2022/05/31 02:30:31;;;;;;;;;;;;;;;5.15;78.17;100378.31;6250912;22;1292;-92
2022/05/31 02:32:56;;;;;;;;;;;;;;;4.94;79.42;100382.59;6276219;22;1211;-92
2022/05/31 02:35:21;;;;;;;;;;;;;;;5.30;78.35;100380.44;6250577;22;1960;-93
2022/05/31 02:38:12;;;;;;;;;;;;;;;5.47;77.76;100385.84;6250756;22;1232;-93
2022/05/31 02:41:03;;;;;;;;;;;;;;;5.09;78.65;100390.19;6276619;22;1267;-92
2022/05/31 02:43:54;;;;;;;;;;;;;;;4.97;78.65;100386.72;6249195;22;1274;-92
2022/05/31 02:46:20;;;;;;;;;;;;;;;5.16;79.14;100393.53;6251759;22;1191;-92
2022/05/31 02:48:45;;;;;;;;;;;;;;;5.35;77.92;100385.97;6252327;22;1231;-93
2022/05/31 02:51:10;;;;;;;;;;;;;;;5.44;77.03;100394.50;6252496;22;1183;-93
2022/05/31 02:53:35;;;;;;;;;;;;;;;5.36;76.76;100389.50;6251883;22;1928;-93
2022/05/31 02:56:01;;;;;;;;;;;;;;;5.13;77.82;100387.78;6278846;22;1003;-93
2022/05/31 02:58:26;;;;;;;;;;;;;;;4.65;79.04;100391.88;6251880;22;1323;-93
2022/05/31 03:00:51;;;;;;;;;;;;;;;4.77;79.48;100392.59;6251743;22;1183;-93
2022/05/31 03:03:17;;;;;;;;;;;;;;;4.60;79.71;100383.63;6251781;22;1285;-93
2022/05/31 03:05:42;;;;;;;;;;;;;;;4.54;80.94;100392.75;6251975;22;1140;-94
2022/05/31 03:08:07;;;;;;;;;;;;;;;4.38;81.58;100394.34;6226405;22;1338;-93
2022/05/31 03:10:36;;;;;;;;;;;;;;;4.56;80.90;100386.03;6251704;22;1200;-94
2022/05/31 03:13:01;;;;;;;;;;;;;;;4.81;79.73;100382.94;6251594;22;1175;-93
2022/05/31 03:15:29;;;;;;;;;;;;;;;5.04;79.16;100376.50;6252101;22;1892;-93
2022/05/31 03:18:01;;;;;;;;;;;;;;;5.05;77.75;100374.63;6251703;22;1187;-93
2022/05/31 03:20:31;;;;;;;;;;;;;;;4.71;78.90;100381.94;6251702;22;1240;-93
2022/05/31 03:23:22;;;;;;;;;;;;;;;4.69;79.32;100371.31;6252400;22;1281;-93
2022/05/31 03:25:49;;;;;;;;;;;;;;;4.47;78.97;100378.53;6219364;22;1261;-93
2022/05/31 03:28:14;;;;;;;;;;;;;;;4.69;79.87;100362.38;6251727;22;1166;-93
2022/05/31 03:30:40;;;;;;;;;;;;;;;4.95;78.08;100367.97;6251493;22;1296;-93
2022/05/31 03:33:09;;;;;;;;;;;;;;;4.95;77.76;100373.38;6251652;22;1015;-94
2022/05/31 03:35:34;;;;;;;;;;;;;;;4.60;78.01;100364.66;6251496;22;1876;-93
2022/05/31 03:38:00;;;;;;;;;;;;;;;4.33;79.76;100371.78;6251502;22;1143;-93
2022/05/31 03:43:09;;;;;;;;;;;;;;;4.40;80.28;100364.31;6278561;22;632;-94
2022/05/31 03:45:35;;;;;;;;;;;;;;;4.68;79.53;100366.97;6251116;22;945;-93
2022/05/31 03:48:00;;;;;;;;;;;;;;;4.74;78.30;100368.72;6251284;22;1301;-93
2022/05/31 03:50:26;;;;;;;;;;;;;;;4.64;78.49;100367.72;6251086;22;1290;-93
2022/05/31 03:52:51;;;;;;;;;;;;;;;4.79;79.23;100367.97;6250788;22;1276;-94
2022/05/31 03:55:16;;;;;;;;;;;;;;;4.86;78.79;100369.44;6251300;22;1901;-95
2022/05/31 03:57:41;;;;;;;;;;;;;;;4.84;78.28;100368.88;6251294;22;1227;-94
2022/05/31 04:00:08;;;;;;;;;;;;;;;4.68;78.66;100364.25;6251252;22;1190;-94
2022/05/31 04:02:33;;;;;;;;;;;;;;;4.42;80.60;100371.09;6251279;22;1186;-94
2022/05/31 04:04:58;;;;;;;;;;;;;;;4.37;81.36;100364.78;6251176;22;1345;-94
2022/05/31 04:07:23;;;;;;;;;;;;;;;4.66;81.37;100365.59;6251006;22;1015;-94
2022/05/31 04:09:48;;;;;;;;;;;;;;;4.88;79.55;100371.91;6251098;22;1237;-94
2022/05/31 04:12:14;;;;;;;;;;;;;;;4.63;80.29;100358.75;6278730;22;1024;-94
2022/05/31 04:14:39;;;;;;;;;;;;;;;4.51;81.19;100360.69;6251227;22;1926;-94
2022/05/31 04:17:04;;;;;;;;;;;;;;;4.50;81.50;100370.75;6251791;22;1177;-94
2022/05/31 04:19:29;;;;;;;;;;;;;;;4.45;81.77;100372.53;6251328;22;1259;-94
2022/05/31 04:21:54;;;;;;;;;;;;;;;4.72;81.43;100376.25;6251119;22;1308;-94
2022/05/31 04:24:22;;;;;;;;;;;;;;;4.59;80.84;100378.47;6251079;22;1272;-92
2022/05/31 04:26:47;;;;;;;;;;;;;;;4.46;81.24;100379.59;6251686;22;1179;-94
2022/05/31 04:29:13;;;;;;;;;;;;;;;4.58;81.62;100366.81;6251054;22;1158;-93
2022/05/31 04:31:38;;;;;;;;;;;;;;;4.77;80.57;100367.38;6251270;22;1304;-93
2022/05/31 04:34:04;;;;;;;;;;;;;;;4.65;81.25;100369.34;6250939;22;1884;-94
2022/05/31 04:36:29;;;;;;;;;;;;;;;4.55;81.46;100375.41;6251399;22;1298;-93
2022/05/31 04:38:54;;;;;;;;;;;;;;;4.85;81.65;100367.78;6250975;22;1130;-94
2022/05/31 04:41:24;;;;;;;;;;;;;;;4.86;80.18;100372.16;6251243;22;1243;-94
2022/05/31 04:43:51;;;;;;;;;;;;;;;5.00;80.38;100375.38;6251082;22;1270;-94
2022/05/31 04:46:18;;;;;;;;;;;;;;;4.90;80.91;100369.78;6251260;22;1306;-93
2022/05/31 04:48:44;;;;;;;;;;;;;;;4.98;81.99;100365.84;6250844;22;1182;-93
2022/05/31 04:51:09;;;;;;;;;;;;;;;5.12;81.96;100367.13;6250917;22;1262;-92
2022/05/31 04:53:34;;;;;;;;;;;;;;;5.14;82.82;100352.25;6251404;22;1168;-92
2022/05/31 04:56:06;;;;;;;;;;;;;;;5.38;82.34;100357.47;6250887;22;1930;-93
2022/05/31 04:58:31;;;;;;;;;;;;;;;5.41;82.37;100355.09;6251329;22;1247;-92
2022/05/31 05:01:17;;;;;;;;;;;;;;;5.54;81.90;100365.59;6251461;22;1301;-93
2022/05/31 05:03:44;;;;;;;;;;;;;;;5.57;82.06;100359.66;6251032;22;1301;-94
2022/05/31 05:06:10;;;;;;;;;;;;;;;5.67;82.12;100348.94;6250722;22;1160;-93
2022/05/31 05:08:36;;;;;;;;;;;;;;;6.07;81.86;100347.81;6278311;22;972;-93
2022/05/31 05:11:02;;;;;;;;;;;;;;;6.25;80.47;100355.63;6250666;22;1262;-94
2022/05/31 05:13:27;;;;;;;;;;;;;;;6.02;80.98;100351.31;6250970;22;1316;-94
2022/05/31 05:15:55;;;;;;;;;;;;;;;6.06;82.23;100349.72;6250745;22;1927;-93
2022/05/31 05:18:20;;;;;;;;;;;;;;;6.28;81.58;100349.69;6250155;22;1472;-92
2022/05/31 05:20:45;;;;;;;;;;;;;;;6.37;81.21;100339.19;6250362;22;1258;-92
2022/05/31 05:23:11;;;;;;;;;;;;;;;6.50;81.37;100346.09;6249813;22;1336;-92
2022/05/31 05:25:36;;;;;;;;;;;;;;;6.50;81.59;100337.94;6250003;22;1171;-93
2022/05/31 05:30:38;;;;;;;;;;;;;;;6.48;81.30;100351.78;6250727;22;1271;-93
2022/05/31 05:30:47;;;;;;;;;;;;;;;6.41;82.04;100352.00;6277296;22;1328;-93
2022/05/31 05:33:28;;;;;;;;;;;;;;;6.34;83.31;100351.38;6249514;22;1124;-93
2022/05/31 05:35:59;;;;;;;;;;;;;;;6.42;83.24;100342.75;6250512;22;1912;-93
2022/05/31 05:38:24;;;;;;;;;;;;;;;6.64;82.52;100339.13;6275800;22;1326;-93
2022/05/31 05:40:50;;;;;;;;;;;;;;;6.63;82.70;100340.25;6250586;22;1273;-93
2022/05/31 05:43:16;;;;;;;;;;;;;;;6.77;82.50;100336.81;6249485;22;1352;-93
2022/05/31 05:45:41;;;;;;;;;;;;;;;6.94;82.03;100339.41;6250388;22;1185;-93
2022/05/31 05:48:06;;;;;;;;;;;;;;;7.15;81.63;100337.63;6250668;22;1206;-92
2022/05/31 05:50:37;;;;;;;;;;;;;;;7.33;81.51;100333.69;6250810;22;1412;-94
2022/05/31 05:53:05;;;;;;;;;;;;;;;7.41;81.09;100331.28;6251464;22;1124;-94
2022/05/31 05:55:30;;;;;;;;;;;;;;;7.47;81.07;100335.69;6250949;22;1884;-94
2022/05/31 05:57:55;;;;;;;;;;;;;;;7.57;80.65;100329.47;6250815;22;1226;-94
2022/05/31 06:00:21;;;;;;;;;;;;;;;7.65;80.57;100333.59;6251105;22;1354;-94
2022/05/31 06:02:49;;;;;;;;;;;;;;;7.66;80.58;100338.75;6249919;22;1219;-94
2022/05/31 06:05:16;;;;;;;;;;;;;;;7.82;80.39;100337.75;6250738;22;1283;-94
2022/05/31 06:07:45;;;;;;;;;;;;;;;8.02;79.69;100328.00;6250262;22;1263;-93
2022/05/31 06:10:17;;;;;;;;;;;;;;;8.07;79.31;100328.03;6250255;22;1251;-93
2022/05/31 06:12:44;;;;;;;;;;;;;;;8.13;79.39;100332.41;6250118;22;1329;-93
2022/05/31 06:15:16;;;;;;;;;;;;;;;8.18;79.12;100330.50;6250631;22;1946;-93
2022/05/31 06:17:43;;;;;;;;;;;;;;;8.34;78.76;100331.38;6252386;22;1174;-93
2022/05/31 06:20:10;;;;;;;;;;;;;;;8.47;78.24;100330.06;6252445;22;1275;-93
2022/05/31 06:22:36;;;;;;;;;;;;;;;8.60;78.00;100326.78;6253051;22;1279;-93
2022/05/31 06:25:01;;;;;;;;;;;;;;;8.69;77.95;100325.97;6253404;22;1336;-93
2022/05/31 06:27:27;;;;;;;;;;;;;;;8.69;78.14;100330.63;6252920;22;1218;-93
2022/05/31 06:29:52;;;;;;;;;;;;;;;8.80;78.03;100328.72;6251769;22;1290;-92
2022/05/31 06:32:18;;;;;;;;;;;;;;;8.96;77.70;100328.44;6252041;22;1254;-92
2022/05/31 06:34:45;;;;;;;;;;;;;;;9.02;77.72;100319.13;6250922;22;1897;-93
2022/05/31 06:37:11;;;;;;;;;;;;;;;9.09;76.66;100316.97;6251868;22;1365;-92
2022/05/31 06:39:41;;;;;;;;;;;;;;;9.17;76.99;100320.25;6251679;22;1261;-94
2022/05/31 06:42:06;;;;;;;;;;;;;;;9.23;75.40;100325.41;6252400;22;1287;-94
2022/05/31 06:44:36;;;;;;;;;;;;;;;9.33;75.41;100327.31;6252032;22;1256;-94
2022/05/31 06:47:01;;;;;;;;;;;;;;;9.45;75.71;100320.44;6252003;22;1300;-93
2022/05/31 06:49:26;;;;;;;;;;;;;;;9.62;75.73;100320.09;6252067;22;1208;-93
2022/05/31 06:57:19;;;;;;;;;;;;;;;9.92;73.70;100308.25;6279620;22;631;-94
2022/05/31 06:59:44;;;;;;;;;;;;;;;9.92;73.94;100308.25;6252001;22;1262;-94
2022/05/31 07:02:10;;;;;;;;;;;;;;;9.95;74.87;100304.16;6252567;22;924;-94
2022/05/31 07:04:40;;;;;;;;;;;;;;;9.95;74.35;100304.97;6252295;22;1454;-94
2022/05/31 07:07:05;;;;;;;;;;;;;;;10.04;74.72;100311.44;6252067;22;1150;-93
2022/05/31 07:09:31;;;;;;;;;;;;;;;10.09;74.59;100303.25;6252627;22;1314;-94
2022/05/31 07:11:57;;;;;;;;;;;;;;;10.08;74.22;100303.50;6252010;22;1274;-94
2022/05/31 07:14:23;;;;;;;;;;;;;;;10.17;74.11;100304.56;6252161;22;1889;-94
2022/05/31 07:16:48;;;;;;;;;;;;;;;10.27;74.11;100303.72;6252425;22;1144;-94
2022/05/31 07:19:13;;;;;;;;;;;;;;;10.36;74.71;100305.56;6278604;22;611;-94
2022/05/31 07:21:38;;;;;;;;;;;;;;;10.42;74.42;100295.41;6252528;22;1269;-94
2022/05/31 07:24:04;;;;;;;;;;;;;;;10.45;74.15;100292.09;6253086;22;1020;-94
2022/05/31 07:26:29;;;;;;;;;;;;;;;10.52;73.99;100292.59;6252949;22;1283;-94
2022/05/31 07:28:54;;;;;;;;;;;;;;;10.57;73.61;100278.84;6250442;22;1050;-93
2022/05/31 07:31:20;;;;;;;;;;;;;;;10.53;74.14;100277.81;6252519;22;1478;-93
2022/05/31 07:33:45;;;;;;;;;;;;;;;10.54;74.52;100277.53;6252128;22;1918;-93
2022/05/31 07:36:10;;;;;;;;;;;;;;;10.52;74.28;100284.38;6252268;22;1246;-92
2022/05/31 07:38:36;;;;;;;;;;;;;;;10.52;74.45;100273.44;6252226;22;992;-93
2022/05/31 07:41:01;;;;;;;;;;;;;;;10.53;74.05;100278.63;6254293;22;1377;-95
2022/05/31 07:43:26;;;;;;;;;;;;;;;10.45;73.39;100281.16;6254032;22;1162;-95
2022/05/31 07:46:06;;;;;;;;;;;;;;;10.39;73.55;100271.34;6253358;22;1298;-95
2022/05/31 07:48:34;;;;;;;;;;;;;;;10.49;73.87;100274.00;6252963;22;1338;-94
2022/05/31 07:50:59;;;;;;;;;;;;;;;10.67;73.34;100267.84;6257481;22;1302;-96
2022/05/31 07:53:33;;;;;;;;;;;;;;;10.79;73.33;100271.03;6266684;22;1470;-95
2022/05/31 07:56:07;;;;;;;;;;;;;;;10.87;73.37;100259.44;6266826;22;1922;-94
2022/05/31 07:58:32;;;;;;;;;;;;;;;10.86;72.60;100263.28;6253416;22;1212;-94
2022/05/31 08:00:58;;;;;;;;;;;;;;;10.97;72.67;100255.81;6255102;22;1393;-95
2022/05/31 08:03:24;;;;;;;;;;;;;;;11.11;71.14;100258.66;6259427;22;1182;-94
2022/05/31 08:05:49;;;;;;;;;;;;;;;11.20;70.13;100254.19;6255899;22;1298;-94
2022/05/31 08:08:14;;;;;;;;;;;;;;;11.23;70.79;100250.84;6253813;22;1153;-95
2022/05/31 08:10:40;;;;;;;;;;;;;;;11.32;70.09;100241.69;6256417;22;1221;-95
2022/05/31 08:13:05;;;;;;;;;;;;;;;11.43;69.41;100245.16;6251053;22;1150;-93
2022/05/31 08:15:30;;;;;;;;;;;;;;;11.49;68.35;100237.66;6255634;22;1888;-95
2022/05/31 08:17:55;;;;;;;;;;;;;;;11.60;68.16;100237.25;6257016;22;1214;-95
2022/05/31 08:20:21;;;;;;;;;;;;;;;11.66;67.45;100238.81;6255199;22;1268;-94
2022/05/31 08:22:46;;;;;;;;;;;;;;;11.66;67.66;100233.34;6253672;22;1571;-93
2022/05/31 08:25:11;;;;;;;;;;;;;;;11.65;67.71;100231.69;6253660;22;1187;-94
2022/05/31 08:27:43;;;;;;;;;;;;;;;11.66;67.86;100233.34;6255771;22;1192;-95
2022/05/31 08:30:08;;;;;;;;;;;;;;;11.63;67.76;100231.19;6254072;22;1254;-95
2022/05/31 08:32:34;;;;;;;;;;;;;;;11.58;68.15;100239.47;6252814;22;1253;-95
2022/05/31 08:34:59;;;;;;;;;;;;;;;11.56;69.24;100240.91;6254160;22;1889;-94
2022/05/31 08:37:25;;;;;;;;;;;;;;;11.58;70.14;100233.16;6262898;22;1130;-95
2022/05/31 08:39:50;;;;;;;;;;;;;;;11.51;69.83;100239.00;6266028;22;1315;-95
2022/05/31 08:42:19;;;;;;;;;;;;;;;11.49;69.99;100229.44;6281768;22;865;-94
2022/05/31 08:44:45;;;;;;;;;;;;;;;11.57;69.86;100237.84;6251969;22;1246;-94
2022/05/31 08:47:19;;;;;;;;;;;;;;;11.73;71.13;100231.06;6251885;22;1225;-94
2022/05/31 08:52:38;;;;;;;;;;;;;;;12.21;69.95;100225.47;6279261;22;637;-94
2022/05/31 08:58:00;;;;;;;;;;;;;;;12.43;68.96;100219.34;6250351;22;1367;-94
2022/05/31 09:00:29;;;;;;;;;;;;;;;12.56;70.09;100215.03;6280341;22;1349;-94
2022/05/31 09:03:01;;;;;;;;;;;;;;;12.63;69.89;100216.28;6253502;22;1151;-92
2022/05/31 09:05:31;;;;;;;;;;;;;;;12.65;68.42;100203.06;6254389;22;1259;-93
2022/05/31 09:08:05;;;;;;;;;;;;;;;12.72;66.66;100200.72;6254394;22;1274;-93
2022/05/31 09:10:34;;;;;;;;;;;;;;;12.81;68.05;100201.66;6253282;22;1339;-94
2022/05/31 09:13:13;;;;;;;;;;;;;;;13.02;67.18;100198.53;6253820;22;1273;-93
2022/05/31 09:15:40;;;;;;;;;;;;;;;13.24;65.35;100188.50;6253796;22;1926;-94
2022/05/31 09:18:18;;;;;;;;;;;;;;;13.32;64.10;100194.41;6253942;22;1251;-93
2022/05/31 09:20:48;;;;;;;;;;;;;;;13.39;64.61;100192.88;6253582;22;1274;-94
2022/05/31 09:23:18;;;;;;;;;;;;;;;13.40;62.42;100186.25;6253592;22;1256;-93
2022/05/31 09:25:45;;;;;;;;;;;;;;;13.49;61.45;100189.09;6254372;22;1218;-93
2022/05/31 09:28:33;;;;;;;;;;;;;;;13.61;60.66;100183.88;6253806;22;1335;-93
2022/05/31 09:31:04;;;;;;;;;;;;;;;13.61;60.44;100186.63;6252802;22;1306;-93
2022/05/31 09:33:35;;;;;;;;;;;;;;;13.65;59.46;100193.16;6253083;22;1289;-94
2022/05/31 09:36:03;;;;;;;;;;;;;;;13.74;59.71;100195.97;6252664;22;1888;-93
2022/05/31 09:38:37;;;;;;;;;;;;;;;13.77;60.21;100190.69;6253751;22;1280;-94
2022/05/31 09:41:07;;;;;;;;;;;;;;;13.77;58.63;100190.69;6280318;22;1319;-93
2022/05/31 09:43:38;;;;;;;;;;;;;;;13.89;56.63;100181.88;6252709;22;1241;-94
2022/05/31 09:46:08;;;;;;;;;;;;;;;14.10;57.55;100180.28;6252757;22;1180;-94
2022/05/31 09:48:34;;;;;;;;;;;;;;;14.19;55.53;100181.19;6280367;22;817;-94
2022/05/31 09:51:15;;;;;;;;;;;;;;;14.19;56.20;100175.66;6252698;22;1254;-93
2022/05/31 09:59:11;;;;;;;;;;;;;;;14.20;53.00;100170.97;6278755;22;643;-93
2022/05/31 10:01:46;;;;;;;;;;;;;;;14.32;52.82;100162.94;6251839;22;1418;-93
2022/05/31 10:04:22;;;;;;;;;;;;;;;14.35;55.60;100162.34;6250671;22;1171;-91
2022/05/31 10:06:54;;;;;;;;;;;;;;;14.32;57.45;100169.28;6251517;22;1408;-93
2022/05/31 10:09:22;;;;;;;;;;;;;;;14.25;55.43;100163.41;6251548;22;1453;-93
2022/05/31 10:11:49;;;;;;;;;;;;;;;14.31;54.56;100155.81;6251448;22;1255;-93
2022/05/31 10:14:22;;;;;;;;;;;;;;;14.31;54.75;100153.06;6253615;22;1893;-92
2022/05/31 10:16:49;;;;;;;;;;;;;;;14.36;54.19;100147.44;6253490;22;1251;-93
2022/05/31 10:19:28;;;;;;;;;;;;;;;14.44;54.07;100149.47;6253754;22;1182;-93
2022/05/31 10:21:54;;;;;;;;;;;;;;;14.64;52.79;100148.09;6254001;22;1288;-93
2022/05/31 10:24:20;;;;;;;;;;;;;;;14.53;49.95;100135.75;6253066;22;1210;-93
2022/05/31 10:27:04;;;;;;;;;;;;;;;14.56;52.01;100135.91;6253656;22;1148;-95
2022/05/31 10:29:33;;;;;;;;;;;;;;;14.57;52.92;100139.50;6279692;22;841;-94
2022/05/31 10:31:58;;;;;;;;;;;;;;;14.49;51.24;100135.56;6280512;22;1247;-93
2022/05/31 10:34:32;;;;;;;;;;;;;;;14.72;49.63;100133.56;6252730;22;1894;-94
2022/05/31 10:36:59;;;;;;;;;;;;;;;14.80;50.41;100127.28;6253333;22;1161;-94
2022/05/31 10:39:26;;;;;;;;;;;;;;;14.90;48.31;100123.44;6280987;22;817;-94
2022/05/31 10:41:52;;;;;;;;;;;;;;;15.00;46.97;100120.41;6280768;22;1184;-94
2022/05/31 10:44:32;;;;;;;;;;;;;;;15.24;51.53;100115.28;6253247;22;1265;-93
2022/05/31 10:47:24;;;;;;;;;;;;;;;15.43;51.28;100115.00;6254244;22;1309;-94
2022/05/31 10:49:50;;;;;;;;;;;;;;;15.50;50.26;100118.91;6272964;22;1326;-93
2022/05/31 10:52:22;;;;;;;;;;;;;;;15.63;50.13;100119.94;6281336;22;821;-93
2022/05/31 10:54:53;;;;;;;;;;;;;;;15.75;49.92;100111.81;6253682;22;1896;-94
2022/05/31 10:57:23;;;;;;;;;;;;;;;15.94;50.07;100107.91;6252854;22;1234;-94
2022/05/31 11:00:18;;;;;;;;;;;;;;;15.98;49.08;100097.84;6253370;22;1327;-93
2022/05/31 11:03:02;;;;;;;;;;;;;;;15.88;49.27;100105.31;6254599;22;1166;-92
2022/05/31 11:05:36;;;;;;;;;;;;;;;15.96;45.72;100103.69;6254599;22;1363;-94
2022/05/31 11:13:46;;;;;;;;;;;;;;;16.02;52.72;100085.00;6282764;22;596;-94
2022/05/31 11:16:18;;;;;;;;;;;;;;;16.10;48.73;100081.41;6255981;22;1885;-93
2022/05/31 11:19:05;;;;;;;;;;;;;;;16.30;50.38;100086.25;6255030;22;1195;-94
2022/05/31 11:21:30;;;;;;;;;;;;;;;16.57;47.63;100082.28;6254368;22;1328;-94
2022/05/31 11:24:08;;;;;;;;;;;;;;;16.60;46.46;100074.13;6254993;22;1279;-94
2022/05/31 11:26:39;;;;;;;;;;;;;;;16.46;46.53;100064.44;6281946;22;798;-94
2022/05/31 11:29:10;;;;;;;;;;;;;;;16.52;46.41;100063.09;6254458;22;1341;-93
2022/05/31 11:31:43;;;;;;;;;;;;;;;16.54;44.75;100061.66;6254775;22;1329;-93
2022/05/31 11:34:11;;;;;;;;;;;;;;;16.57;45.60;100063.75;6254348;22;1919;-94
2022/05/31 11:37:01;;;;;;;;;;;;;;;16.57;44.95;100060.19;6254351;22;1284;-94
2022/05/31 11:39:39;;;;;;;;;;;;;;;16.22;43.78;100045.66;6254906;22;1129;-93
2022/05/31 11:42:04;;;;;;;;;;;;;;;16.11;47.25;100052.69;6253686;22;1259;-92
2022/05/31 11:44:39;;;;;;;;;;;;;;;16.29;49.23;100048.72;6254647;22;1266;-94
2022/05/31 11:47:12;;;;;;;;;;;;;;;16.53;47.26;100048.16;6254515;22;1138;-94
2022/05/31 11:49:48;;;;;;;;;;;;;;;16.57;48.36;100051.91;6281907;22;939;-93
2022/05/31 11:52:40;;;;;;;;;;;;;;;16.58;49.83;100056.28;6254345;22;1280;-94
2022/05/31 11:58:02;;;;;;;;;;;;;;;16.39;49.49;100047.56;6281659;22;612;-93
2022/05/31 12:00:32;;;;;;;;;;;;;;;16.35;49.47;100052.13;6254097;22;1282;-93
2022/05/31 12:03:03;;;;;;;;;;;;;;;16.37;50.02;100049.84;6254652;22;1311;-94
2022/05/31 12:05:31;;;;;;;;;;;;;;;16.44;49.10;100039.09;6254789;22;1286;-94
2022/05/31 12:08:03;;;;;;;;;;;;;;;16.59;47.27;100036.59;6254567;22;1151;-94
2022/05/31 12:10:34;;;;;;;;;;;;;;;16.78;46.90;100035.41;6254753;22;1271;-94
2022/05/31 12:13:04;;;;;;;;;;;;;;;16.87;48.44;100036.97;6253692;22;1305;-94
2022/05/31 12:15:31;;;;;;;;;;;;;;;16.94;49.46;100040.03;6254188;22;1857;-94
2022/05/31 12:18:14;;;;;;;;;;;;;;;17.03;46.31;100035.25;6254342;22;1218;-94
2022/05/31 12:20:42;;;;;;;;;;;;;;;17.15;46.66;100025.44;6254131;22;1288;-93
2022/05/31 12:23:15;;;;;;;;;;;;;;;17.27;46.42;100025.50;6253750;22;1318;-94
2022/05/31 12:25:42;;;;;;;;;;;;;;;17.39;44.48;100026.38;6253130;22;1246;-93
2022/05/31 12:28:22;;;;;;;;;;;;;;;17.39;45.82;100022.81;6253822;22;1341;-94
2022/05/31 12:31:04;;;;;;;;;;;;;;;17.33;47.12;100019.44;6257704;22;1356;-93
2022/05/31 12:36:08;;;;;;;;;;;;;;;17.07;47.17;100018.81;6279736;22;1876;-93
2022/05/31 12:38:52;;;;;;;;;;;;;;;16.88;47.46;100016.47;6252981;22;1215;-94
2022/05/31 12:41:31;;;;;;;;;;;;;;;16.63;48.29;100017.44;6252219;22;1291;-94
2022/05/31 12:43:58;;;;;;;;;;;;;;;16.51;47.96;100020.03;6252298;22;1710;-94
2022/05/31 12:46:26;;;;;;;;;;;;;;;16.42;47.09;100019.25;6253013;22;1378;-94
2022/05/31 12:48:56;;;;;;;;;;;;;;;16.35;47.92;100024.50;6252468;22;1359;-93
2022/05/31 12:51:23;;;;;;;;;;;;;;;16.17;48.70;100026.50;6252795;22;1353;-94
2022/05/31 12:53:59;;;;;;;;;;;;;;;16.18;50.49;100033.66;6252621;22;1182;-94
2022/05/31 12:56:28;;;;;;;;;;;;;;;16.26;48.48;100032.81;6252496;22;1262;-93
2022/05/31 12:58:53;;;;;;;;;;;;;;;16.33;49.70;100027.63;6252022;22;1264;-94
2022/05/31 13:01:24;;;;;;;;;;;;;;;16.27;49.26;100034.44;6253497;22;1271;-95
2022/05/31 13:04:11;;;;;;;;;;;;;;;16.24;48.52;100030.41;6259693;22;1331;-95
2022/05/31 13:06:55;;;;;;;;;;;;;;;16.27;47.10;100023.38;6255625;22;1406;-94
2022/05/31 13:09:26;;;;;;;;;;;;;;;16.18;49.05;100028.13;6255086;22;1496;-95
2022/05/31 13:20:57;;;;;;;;;;;;;;;15.09;52.58;100119.28;6289079;22;1300;-95
2022/05/31 13:23:32;;;;;;;;;;;;;;;14.20;55.63;100105.72;6206988;22;1230;-94
2022/05/31 13:26:09;;;;;;;;;;;;;;;13.83;57.65;100095.09;6289483;22;1035;-95
2022/05/31 13:28:36;;;;;;;;;;;;;;;13.53;62.12;100126.84;6237608;22;1385;-95
2022/05/31 13:31:10;;;;;;;;;;;;;;;13.09;67.03;100103.59;6260296;22;1203;-95
2022/05/31 13:33:35;;;;;;;;;;;;;;;12.30;72.95;100121.31;6260591;22;1278;-94
2022/05/31 13:36:03;;;;;;;;;;;;;;;12.36;76.91;100125.59;6252128;22;1880;-94
2022/05/31 13:38:31;;;;;;;;;;;;;;;12.31;75.88;100137.50;6252020;22;1204;-94
2022/05/31 13:40:57;;;;;;;;;;;;;;;12.34;75.66;100136.06;6251765;22;1191;-94
2022/05/31 13:43:28;;;;;;;;;;;;;;;12.36;74.09;100139.31;6252132;22;1246;-94
2022/05/31 13:45:56;;;;;;;;;;;;;;;12.69;75.92;100153.81;6251937;22;1363;-93
2022/05/31 13:48:23;;;;;;;;;;;;;;;12.74;74.94;100148.25;6251027;22;1304;-94
2022/05/31 13:50:57;;;;;;;;;;;;;;;12.70;74.90;100149.97;6252199;22;1281;-94
2022/05/31 13:53:22;;;;;;;;;;;;;;;12.91;73.88;100155.91;6251686;22;1289;-94
2022/05/31 13:55:53;;;;;;;;;;;;;;;12.77;73.49;100158.63;6250863;22;1876;-94
2022/05/31 13:58:22;;;;;;;;;;;;;;;12.85;73.02;100166.97;6251510;22;1367;-94
2022/05/31 14:00:48;;;;;;;;;;;;;;;12.82;73.27;100169.53;6251479;22;1195;-93
2022/05/31 14:03:28;;;;;;;;;;;;;;;12.85;73.45;100175.22;6251289;22;1328;-93
2022/05/31 14:06:14;;;;;;;;;;;;;;;12.82;73.99;100156.59;6254153;22;1318;-94
2022/05/31 14:08:42;;;;;;;;;;;;;;;13.29;72.92;100145.53;6254107;22;1155;-95
2022/05/31 14:11:09;;;;;;;;;;;;;;;13.96;72.31;100119.78;6254917;22;1333;-94
2022/05/31 14:13:34;;;;;;;;;;;;;;;14.36;72.38;100117.97;6254290;22;1127;-94
2022/05/31 14:16:07;;;;;;;;;;;;;;;14.39;70.68;100109.09;6253368;22;1885;-94
2022/05/31 14:18:38;;;;;;;;;;;;;;;14.26;72.29;100111.91;6251215;22;1171;-94